Anette — A8WY8 — position and weather

sailwx.info

Track history (hours):
 
Tides and Currents Weather Stations Pressure Air Temp Water Temp Dewpoint Dewpoint Depression Visibility Wind Speed Wind Dir Waves Ship Positions

Anette

Last reported at 2015-Apr-16 06:27 UTC. Time now 2015-May-03 18:55 UTC.
Position N 43°38' W 069°46'.
Warning: this ship's position is 17 days out of date.

Length 180 m; draft 8.3 m.

Type: Cargo ship. MMSI: 636092099.

Date/timePositionNaut miles runAvg speedWind from/ knotsBaromVisibWave heightAir tempDewpointWater temp
2015-Apr-16 06:27N 43°38' W 069°46'1314.2
2015-Apr-16 05:34N 43°37' W 070°04'9 8.8
2015-Apr-16 04:29N 43°38' W 070°16'0 0.0
2015-Apr-15 08:33N 43°38' W 070°16'7 6.8
2015-Apr-15 07:33N 43°35' W 070°09'10 9.6
2015-Apr-15 06:33N 43°32' W 069°56'1 0.8
2015-Apr-15 05:33N 43°32' W 069°55'1 0.5
2015-Apr-15 04:33N 43°33' W 069°55'0 0.1
2015-Apr-15 03:33N 43°33' W 069°55'0 0.2
2015-Apr-15 02:33N 43°32' W 069°55'  
Track history (hours):
 
Tides and Currents Weather Stations Pressure Air Temp Water Temp Dewpoint Dewpoint Depression Visibility Wind Speed Wind Dir Waves Ship Positions

Anette

Last reported at 2015-Apr-16 06:27 UTC. Time now 2015-May-03 18:55 UTC.
Position N 43°38' W 069°46'.
Warning: this ship's position is 17 days out of date.

Length 180 m; draft 8.3 m.

Type: Cargo ship. MMSI: 636092099.

Date/timePositionNaut miles runAvg speedWind from/ knotsBaromVisibWave heightAir tempDewpointWater temp
2015-Apr-16 06:27N 43°38' W 069°46'1314.2
2015-Apr-16 05:34N 43°37' W 070°04'9 8.8
2015-Apr-16 04:29N 43°38' W 070°16'0 0.0
2015-Apr-15 08:33N 43°38' W 070°16'7 6.8
2015-Apr-15 07:33N 43°35' W 070°09'10 9.6
2015-Apr-15 06:33N 43°32' W 069°56'1 0.8
2015-Apr-15 05:33N 43°32' W 069°55'1 0.5
2015-Apr-15 04:33N 43°33' W 069°55'0 0.1
2015-Apr-15 03:33N 43°33' W 069°55'0 0.2
2015-Apr-15 02:33N 43°32' W 069°55'  

Dump ship's entire track history